createdAt,value
2022-08-27T00:02:31.480Z,11.73
2022-08-27T00:05:34.277Z,11.73
2022-08-27T00:08:38.680Z,12.45
2022-08-27T00:11:41.594Z,13.35
2022-08-27T00:14:44.959Z,12.15
2022-08-27T00:17:48.007Z,12.95
2022-08-27T00:20:52.429Z,12.82
2022-08-27T00:23:59.785Z,12.88
2022-08-27T00:27:07.299Z,13.65
2022-08-27T00:30:14.001Z,11.65
2022-08-27T00:33:21.447Z,11.73
2022-08-27T00:36:24.612Z,12.10
2022-08-27T00:39:29.427Z,11.68
2022-08-27T00:42:32.193Z,12.45
2022-08-27T00:45:47.605Z,12.23
2022-08-27T00:48:50.523Z,12.45
2022-08-27T00:51:54.149Z,12.10
2022-08-27T00:55:10.612Z,12.00
2022-08-27T00:58:22.785Z,11.95
2022-08-27T01:01:26.905Z,11.07
2022-08-27T01:04:29.832Z,11.77
2022-08-27T01:07:39.320Z,10.82
2022-08-27T01:10:50.876Z,11.88
2022-08-27T01:14:03.021Z,12.40
2022-08-27T01:17:07.199Z,11.43
2022-08-27T01:20:17.236Z,11.13
2022-08-27T01:23:23.511Z,9.93
2022-08-27T01:26:29.824Z,11.85
2022-08-27T01:29:32.662Z,11.40
2022-08-27T01:32:36.904Z,10.98
2022-08-27T01:35:42.922Z,11.70
2022-08-27T01:38:45.800Z,10.23
2022-08-27T01:41:52.322Z,10.82
2022-08-27T01:45:05.599Z,10.50
2022-08-27T01:48:10.709Z,11.60
2022-08-27T01:51:14.793Z,9.80
2022-08-27T01:54:22.235Z,10.30
2022-08-27T01:57:26.551Z,9.77
2022-08-27T02:00:38.282Z,9.52
2022-08-27T02:03:47.422Z,8.73
2022-08-27T02:06:54.397Z,8.95
2022-08-27T02:10:04.554Z,9.25
2022-08-27T02:13:23.048Z,9.23
2022-08-27T02:16:27.201Z,9.75
2022-08-27T02:19:34.495Z,10.98
2022-08-27T02:22:41.677Z,11.00
2022-08-27T02:25:46.580Z,11.65
2022-08-27T02:28:53.018Z,11.32
2022-08-27T02:32:01.163Z,11.27
2022-08-27T02:35:12.609Z,10.57
2022-08-27T02:38:18.807Z,11.30
2022-08-27T02:41:21.635Z,11.70
2022-08-27T02:44:34.626Z,12.05
2022-08-27T02:47:49.695Z,11.73
2022-08-27T02:50:53.052Z,11.75
2022-08-27T02:54:09.757Z,12.05
2022-08-27T02:57:18.245Z,11.43
2022-08-27T03:00:22.392Z,11.55
2022-08-27T03:03:34.012Z,11.73
2022-08-27T03:06:42.989Z,13.05
2022-08-27T03:09:57.776Z,11.70
2022-08-27T03:13:09.695Z,11.55
2022-08-27T03:16:12.643Z,12.13
2022-08-27T03:19:28.893Z,11.82
2022-08-27T03:22:33.486Z,12.68
2022-08-27T03:25:38.801Z,10.57
2022-08-27T03:28:42.145Z,10.82
2022-08-27T03:31:49.634Z,11.07
2022-08-27T03:34:57.913Z,11.60
2022-08-27T03:38:13.739Z,10.73
2022-08-27T03:41:45.558Z,9.98
2022-08-27T03:44:51.688Z,11.20
2022-08-27T03:47:54.453Z,11.57
2022-08-27T03:51:02.157Z,11.75
2022-08-27T03:54:10.729Z,10.35
2022-08-27T03:57:14.409Z,11.95
2022-08-27T04:00:20.748Z,10.38
2022-08-27T04:03:23.991Z,11.38
2022-08-27T04:06:29.694Z,10.23
2022-08-27T04:09:32.744Z,10.40
2022-08-27T04:12:36.239Z,10.70
2022-08-27T04:15:43.280Z,10.85
2022-08-27T04:18:50.462Z,11.15
2022-08-27T04:22:09.670Z,9.82
2022-08-27T04:25:17.389Z,10.77
2022-08-27T04:28:22.056Z,10.98
2022-08-27T04:31:25.775Z,10.48
2022-08-27T04:34:38.962Z,10.40
2022-08-27T04:37:43.779Z,9.95
2022-08-27T04:41:04.172Z,9.77
2022-08-27T04:44:09.160Z,9.95
2022-08-27T04:47:12.484Z,9.43
2022-08-27T04:50:16.790Z,9.82
2022-08-27T04:53:28.816Z,9.68
2022-08-27T04:56:32.352Z,9.77
2022-08-27T04:59:35.863Z,9.90
2022-08-27T05:02:38.571Z,10.32
2022-08-27T05:05:41.606Z,11.20
2022-08-27T05:08:47.043Z,10.35
2022-08-27T05:11:52.079Z,9.77
2022-08-27T05:14:57.002Z,10.82
2022-08-27T05:18:00.732Z,10.30
2022-08-27T05:21:05.571Z,11.50
2022-08-27T05:24:11.023Z,10.55
2022-08-27T05:27:14.614Z,10.93
2022-08-27T05:30:22.070Z,11.05
2022-08-27T05:33:27.578Z,11.25
2022-08-27T05:36:32.153Z,10.55
2022-08-27T05:39:37.157Z,10.57
2022-08-27T05:42:40.860Z,10.90
2022-08-27T05:45:45.067Z,9.38
2022-08-27T05:48:48.031Z,11.45
2022-08-27T05:51:50.759Z,10.20
2022-08-27T05:54:55.138Z,11.35
2022-08-27T05:57:59.538Z,10.80
2022-08-27T06:01:08.244Z,11.25
2022-08-27T06:04:17.882Z,11.20
2022-08-27T06:07:26.445Z,10.90
2022-08-27T06:10:30.545Z,11.48
2022-08-27T06:13:37.737Z,11.70
2022-08-27T06:16:48.198Z,11.15
2022-08-27T06:19:51.680Z,11.43
2022-08-27T06:22:55.633Z,12.07
2022-08-27T06:25:59.990Z,12.48
2022-08-27T06:29:03.130Z,11.80
2022-08-27T06:32:14.948Z,11.55
2022-08-27T06:35:18.470Z,11.60
2022-08-27T06:38:21.217Z,10.60
2022-08-27T06:41:27.296Z,11.52
2022-08-27T06:44:31.131Z,11.85
2022-08-27T06:47:36.959Z,11.38
2022-08-27T06:50:41.615Z,10.73
2022-08-27T06:53:48.695Z,9.98
2022-08-27T06:56:53.156Z,10.77
2022-08-27T06:59:58.065Z,11.85
2022-08-27T07:03:01.601Z,11.18
2022-08-27T07:06:06.439Z,10.20
2022-08-27T07:09:10.168Z,10.68
2022-08-27T07:12:15.103Z,10.68
2022-08-27T07:15:18.681Z,8.18
2022-08-27T07:18:37.037Z,10.52
2022-08-27T07:21:44.797Z,8.38
2022-08-27T07:24:47.863Z,8.75
2022-08-27T07:27:52.208Z,8.50
2022-08-27T07:30:55.494Z,9.40
2022-08-27T07:34:01.750Z,7.78
2022-08-27T07:37:04.719Z,8.80
2022-08-27T07:40:09.858Z,8.30
2022-08-27T07:43:34.768Z,7.70
2022-08-27T07:46:40.546Z,8.50
2022-08-27T07:49:48.654Z,7.32
2022-08-27T07:52:54.269Z,7.13
2022-08-27T07:56:02.853Z,6.63
2022-08-27T07:59:07.212Z,7.57
2022-08-27T08:02:09.959Z,6.50
2022-08-27T08:05:14.112Z,6.63
2022-08-27T08:08:19.663Z,7.05
2022-08-27T08:11:22.432Z,7.15
2022-08-27T08:14:26.555Z,6.15
2022-08-27T08:17:29.398Z,6.32
2022-08-27T08:20:56.457Z,6.25
2022-08-27T08:23:55.504Z,6.25
2022-08-27T08:26:58.113Z,6.53
2022-08-27T08:30:02.351Z,6.60
2022-08-27T08:33:05.228Z,6.93
2022-08-27T08:36:09.836Z,6.47
2022-08-27T08:39:12.542Z,6.03
2022-08-27T08:42:25.759Z,6.72
2022-08-27T08:45:32.127Z,6.78
2022-08-27T08:48:35.873Z,6.53
2022-08-27T08:51:40.514Z,6.57
2022-08-27T08:54:44.842Z,6.68
2022-08-27T08:57:49.938Z,7.25
2022-08-27T09:00:57.450Z,7.55
2022-08-27T09:04:01.819Z,6.95
2022-08-27T09:07:09.767Z,8.10
2022-08-27T09:10:16.833Z,6.40
2022-08-27T09:13:26.450Z,8.38
2022-08-27T09:16:32.411Z,7.45
2022-08-27T09:19:35.681Z,7.97
2022-08-27T09:22:44.333Z,7.55
2022-08-27T09:30:55.875Z,8.35
2022-08-27T09:33:59.905Z,7.88
2022-08-27T09:37:05.567Z,8.10
2022-08-27T09:40:13.368Z,6.22
2022-08-27T09:43:23.266Z,6.40
2022-08-27T09:46:42.718Z,7.13
2022-08-27T09:49:48.447Z,6.57
2022-08-27T09:52:54.894Z,6.35
2022-08-27T09:55:59.037Z,5.47
2022-08-27T09:59:06.117Z,6.25
2022-08-27T10:02:16.244Z,5.68
2022-08-27T10:09:48.791Z,6.05
2022-08-27T10:12:53.648Z,6.03
2022-08-27T10:16:14.702Z,6.15
2022-08-27T10:19:24.151Z,6.25
2022-08-27T10:22:34.346Z,5.95
2022-08-27T10:25:41.732Z,6.47
2022-08-27T10:28:53.151Z,6.65
2022-08-27T10:32:04.000Z,6.75
2022-08-27T10:35:10.395Z,6.32
2022-08-27T10:38:16.646Z,6.18
2022-08-27T10:41:25.583Z,6.13
2022-08-27T10:44:43.427Z,6.10
2022-08-27T10:47:51.909Z,6.22
2022-08-27T10:50:57.697Z,5.90
2022-08-27T10:54:05.792Z,6.13
2022-08-27T10:57:35.307Z,6.60
2022-08-27T11:00:42.726Z,7.03
2022-08-27T11:03:47.819Z,6.82
2022-08-27T11:07:00.616Z,7.40
2022-08-27T11:10:10.264Z,6.90
2022-08-27T11:13:15.956Z,6.68
2022-08-27T11:16:21.875Z,6.28
2022-08-27T11:19:29.109Z,5.50
2022-08-27T11:22:35.400Z,5.47
2022-08-27T11:25:47.170Z,6.57
2022-08-27T11:28:52.820Z,5.88
2022-08-27T11:31:59.777Z,6.22
2022-08-27T11:35:04.317Z,5.78
2022-08-27T11:38:17.368Z,5.65
2022-08-27T11:41:31.232Z,4.63
2022-08-27T11:44:49.269Z,5.97
2022-08-27T11:47:53.217Z,5.78
2022-08-27T11:50:57.771Z,5.40
2022-08-27T11:54:01.803Z,4.53
2022-08-27T11:57:21.141Z,6.03
2022-08-27T12:00:31.512Z,5.47
2022-08-27T12:03:37.067Z,5.95
2022-08-27T12:06:44.028Z,6.28
2022-08-27T12:09:53.552Z,5.40
2022-08-27T12:13:11.262Z,5.55
2022-08-27T12:16:25.807Z,4.50
2022-08-27T12:19:34.040Z,5.15
2022-08-27T12:22:56.780Z,4.45
2022-08-27T12:26:01.256Z,5.00
2022-08-27T12:29:24.168Z,4.82
2022-08-27T12:32:30.027Z,4.15
2022-08-27T12:35:34.053Z,4.88
2022-08-27T12:38:50.860Z,3.97
2022-08-27T12:41:54.838Z,4.55
2022-08-27T12:44:58.018Z,4.80
2022-08-27T12:48:02.190Z,4.30
2022-08-27T12:51:08.145Z,4.25
2022-08-27T12:54:19.764Z,4.70
2022-08-27T12:57:36.127Z,4.07
2022-08-27T13:00:46.036Z,4.10
2022-08-27T13:03:51.103Z,4.88
2022-08-27T13:06:53.951Z,4.10
2022-08-27T13:10:12.534Z,3.92
2022-08-27T13:13:27.153Z,3.88
2022-08-27T13:16:43.521Z,4.18
2022-08-27T13:20:13.083Z,3.47
2022-08-27T13:23:41.678Z,4.25
2022-08-27T13:26:54.639Z,3.65
2022-08-27T13:30:05.258Z,4.57
2022-08-27T13:33:13.469Z,4.30
2022-08-27T13:36:27.992Z,4.13
2022-08-27T13:43:15.486Z,4.47
2022-08-27T13:46:33.532Z,4.10
2022-08-27T13:49:40.218Z,3.47
2022-08-27T13:53:01.460Z,3.80
2022-08-27T13:56:07.382Z,3.63
2022-08-27T13:59:16.499Z,2.60
2022-08-27T14:02:29.512Z,2.35
2022-08-27T14:05:39.802Z,2.63
2022-08-27T14:17:14.906Z,1.98
2022-08-27T14:20:37.530Z,2.55
2022-08-27T14:23:57.742Z,2.60
2022-08-27T14:27:20.482Z,2.03
2022-08-27T14:30:46.536Z,2.00
2022-08-27T14:33:59.621Z,1.77
2022-08-27T14:37:30.275Z,2.78
2022-08-27T14:40:34.461Z,1.83
2022-08-27T14:43:42.653Z,2.25
2022-08-27T14:46:55.710Z,2.08
2022-08-27T14:50:03.879Z,2.05
2022-08-27T14:53:07.982Z,1.88
2022-08-27T14:56:35.881Z,2.30
2022-08-27T14:59:42.997Z,1.50
2022-08-27T15:02:54.009Z,2.33
2022-08-27T15:05:58.868Z,1.75
2022-08-27T15:09:07.695Z,2.10
2022-08-27T15:12:25.726Z,1.75
2022-08-27T15:15:46.018Z,1.75
2022-08-27T15:19:16.247Z,1.77
2022-08-27T15:22:26.391Z,1.58
2022-08-27T15:40:19.917Z,1.27
2022-08-27T15:43:26.457Z,1.50
2022-08-27T15:46:29.780Z,1.40
2022-08-27T15:49:33.007Z,1.55
2022-08-27T15:52:40.669Z,1.30
2022-08-27T15:56:20.113Z,1.77
2022-08-27T15:59:27.994Z,1.65
2022-08-27T16:02:35.840Z,1.33
2022-08-27T16:05:41.296Z,1.70
2022-08-27T16:08:52.582Z,1.50
2022-08-27T16:11:56.435Z,1.40
2022-08-27T16:15:04.193Z,1.63
2022-08-27T16:18:09.094Z,1.63
2022-08-27T16:21:14.184Z,1.65
2022-08-27T16:24:18.014Z,1.58
2022-08-27T16:27:24.295Z,2.03
2022-08-27T16:30:32.926Z,1.65
2022-08-27T16:33:39.514Z,1.15
2022-08-27T16:36:45.846Z,2.17
2022-08-27T16:39:49.102Z,1.60
2022-08-27T16:42:53.626Z,1.50
2022-08-27T16:46:02.045Z,1.35
2022-08-27T16:49:24.812Z,1.50
2022-08-27T16:52:33.803Z,1.23
2022-08-27T16:55:37.766Z,1.38
2022-08-27T16:58:52.575Z,1.17
2022-08-27T17:02:00.165Z,1.70
2022-08-27T17:05:30.578Z,1.35
2022-08-27T17:08:33.150Z,1.15
2022-08-27T17:11:52.006Z,1.58
2022-08-27T17:15:03.618Z,1.17
2022-08-27T17:18:09.803Z,1.27
2022-08-27T17:21:14.719Z,1.02
2022-08-27T17:24:25.920Z,1.25
2022-08-27T17:27:38.995Z,1.55
2022-08-27T17:30:51.437Z,1.13
2022-08-27T17:38:29.446Z,1.10
2022-08-27T17:41:41.563Z,1.17
2022-08-27T17:45:08.805Z,1.08
2022-08-27T17:48:49.119Z,1.08
2022-08-27T17:56:18.892Z,0.90
2022-08-27T17:59:54.787Z,1.20
2022-08-27T18:03:13.984Z,1.08
2022-08-27T18:06:47.048Z,1.30
2022-08-27T18:10:20.079Z,1.80
2022-08-27T18:14:12.497Z,1.10
2022-08-27T18:17:33.677Z,1.30
2022-08-27T18:21:28.895Z,1.40
2022-08-27T18:25:02.754Z,1.20
2022-08-27T18:28:48.239Z,1.20
2022-08-27T18:31:53.064Z,1.60
2022-08-27T18:34:57.966Z,1.10
2022-08-27T18:38:07.359Z,1.20
2022-08-27T18:41:33.971Z,1.48
2022-08-27T18:44:38.005Z,1.50
2022-08-27T18:47:41.138Z,1.67
2022-08-27T18:50:58.840Z,1.50
2022-08-27T18:54:05.925Z,1.75
2022-08-27T18:57:08.814Z,2.00
2022-08-27T19:00:13.131Z,1.30
2022-08-27T19:03:18.725Z,1.40
2022-08-27T19:06:23.828Z,1.85
2022-08-27T19:09:28.229Z,1.83
2022-08-27T19:12:31.271Z,1.58
2022-08-27T19:15:35.499Z,1.63
2022-08-27T19:18:38.966Z,2.30
2022-08-27T19:21:46.902Z,1.42
2022-08-27T19:24:53.721Z,1.85
2022-08-27T19:27:59.632Z,1.88
2022-08-27T19:31:02.272Z,2.13
2022-08-27T19:34:05.829Z,2.30
2022-08-27T19:37:09.393Z,2.30
2022-08-27T19:40:18.337Z,2.08
2022-08-27T19:43:26.408Z,1.83
2022-08-27T19:46:32.804Z,2.08
2022-08-27T19:49:36.039Z,2.08
2022-08-27T19:52:42.081Z,2.10
2022-08-27T19:55:46.184Z,1.48
2022-08-27T19:58:57.588Z,1.70
2022-08-27T20:02:08.872Z,1.98
2022-08-27T20:05:19.457Z,2.05
2022-08-27T20:08:25.855Z,2.97
2022-08-27T20:11:31.097Z,2.10
2022-08-27T20:14:38.777Z,1.60
2022-08-27T20:17:46.114Z,2.50
2022-08-27T20:20:57.706Z,2.08
2022-08-27T20:24:00.919Z,1.60
2022-08-27T20:27:07.247Z,1.85
2022-08-27T20:30:11.970Z,1.42
2022-08-27T20:33:16.987Z,1.65
2022-08-27T20:36:21.215Z,1.48
2022-08-27T20:39:24.638Z,1.92
2022-08-27T20:42:31.622Z,1.80
2022-08-27T20:45:34.471Z,2.22
2022-08-27T20:48:38.378Z,1.67
2022-08-27T20:51:51.312Z,1.65
2022-08-27T20:55:07.763Z,1.80
2022-08-27T20:58:34.323Z,1.63
2022-08-27T21:01:37.327Z,2.50
2022-08-27T21:04:41.605Z,2.25
2022-08-27T21:07:48.775Z,2.03
2022-08-27T21:10:52.568Z,2.22
2022-08-27T21:13:56.913Z,2.20
2022-08-27T21:17:00.089Z,1.77
2022-08-27T21:20:02.913Z,2.65
2022-08-27T21:23:07.550Z,2.42
2022-08-27T21:26:13.464Z,1.92
2022-08-27T21:29:17.961Z,2.17
2022-08-27T21:32:22.433Z,1.90
2022-08-27T21:35:28.726Z,2.40
2022-08-27T21:38:34.675Z,1.95
2022-08-27T21:41:37.747Z,2.15
2022-08-27T21:44:41.944Z,2.78
2022-08-27T21:47:44.904Z,2.10
2022-08-27T21:50:49.365Z,1.98
2022-08-27T21:53:54.444Z,2.00
2022-08-27T21:56:57.717Z,2.20
2022-08-27T22:00:08.630Z,2.50
2022-08-27T22:03:16.999Z,2.35
2022-08-27T22:06:20.051Z,2.00
2022-08-27T22:09:22.726Z,1.98
2022-08-27T22:12:43.027Z,2.38
2022-08-27T22:16:12.081Z,1.98
2022-08-27T22:19:20.456Z,2.17
2022-08-27T22:27:31.655Z,2.92
2022-08-27T22:30:37.323Z,2.03
2022-08-27T22:34:04.994Z,1.98
2022-08-27T22:37:24.502Z,2.20
2022-08-27T22:40:45.713Z,2.38
2022-08-27T22:56:06.922Z,2.13
2022-08-27T22:59:10.382Z,2.75
2022-08-27T23:02:16.434Z,1.80
2022-08-27T23:05:20.834Z,2.25
2022-08-27T23:08:32.997Z,2.25
2022-08-27T23:11:36.830Z,2.28
2022-08-27T23:14:39.647Z,2.83
2022-08-27T23:17:51.275Z,3.38
2022-08-27T23:20:59.444Z,1.98
2022-08-27T23:24:10.015Z,2.03
2022-08-27T23:27:31.375Z,2.50
2022-08-27T23:30:35.423Z,2.40
2022-08-27T23:33:38.724Z,2.20
2022-08-27T23:36:44.327Z,1.90
2022-08-27T23:39:48.476Z,2.78
2022-08-27T23:42:51.183Z,1.70
2022-08-27T23:45:53.788Z,1.83
2022-08-27T23:48:59.465Z,2.10
2022-08-27T23:52:02.589Z,2.13
2022-08-27T23:55:07.811Z,1.90
2022-08-27T23:58:10.762Z,1.83
